Terminal Aerodrome Forecast
Issued by NWS

Current Version | Previous Version | Text Only | Print | Product List | Glossary On
Versions: 1 2 3 4 5 6 7 8 9 10 11 12 13 14 15
000
FTUS41 KPBZ 241135
TAFDUJ
TAF
KDUJ 241135Z 2412/2512 11008KT P6SM VCSH BKN050
     FM241800 13010G20KT P6SM VCSH BKN035
     FM250100 13012G22KT 5SM -SHRA OVC025
     FM250400 12012G22KT 5SM -SHRA OVC015=

USA.gov is the U.S. government's official web portal to all federal, state and local government web resources and services.